Time;durP1;ratioP1;P1;durP2;ratioP2;P2;SDS_P1;SDS_P2;PMS_P1;PMS_P2;Temp;Humidity;BMP_temperature;BMP_pressure;BME280_temperature;BME280_humidity;BME280_pressure;Samples;Min_cycle;Max_cycle;Signal;HPM_P1;HPM_P2
2023/04/10 00:00:32;;;;;;;2.63;2.35;;;;;;;;;;6163883;23;20025;-51
2023/04/10 00:03:06;;;;;;;4.60;2.63;;;;;;;;;;6162587;23;20024;-50
2023/04/10 00:05:33;;;;;;;3.47;2.10;;;;;;;;;;6172967;23;20017;-60
2023/04/10 00:08:07;;;;;;;1.92;1.60;;;;;;;;;;6167744;23;20025;-61
2023/04/10 00:10:34;;;;;;;3.03;2.05;;;;;;;;;;6175440;23;20021;-60
2023/04/10 00:13:03;;;;;;;3.60;2.03;;;;;;;;;;6176049;23;20033;-61
2023/04/10 00:15:37;;;;;;;3.08;1.77;;;;;;;;;;6177066;23;20067;-60
2023/04/10 00:18:04;;;;;;;4.47;2.00;;;;;;;;;;6174903;23;20057;-61
2023/04/10 00:20:38;;;;;;;3.13;2.00;;;;;;;;;;6176771;23;20470;-61
2023/04/10 00:23:12;;;;;;;2.58;1.90;;;;;;;;;;6176051;23;20051;-61
2023/04/10 00:25:53;;;;;;;3.30;1.88;;;;;;;;;;6176576;23;20600;-60
2023/04/10 00:28:20;;;;;;;2.20;1.80;;;;;;;;;;6176523;23;20132;-61
2023/04/10 00:30:54;;;;;;;3.03;1.90;;;;;;;;;;6176898;23;20027;-57
2023/04/10 00:33:21;;;;;;;2.33;1.63;;;;;;;;;;6176041;23;20100;-56
2023/04/10 00:35:55;;;;;;;3.13;1.60;;;;;;;;;;6174443;23;20100;-58
2023/04/10 00:38:23;;;;;;;5.32;1.77;;;;;;;;;;6175466;23;20029;-58
2023/04/10 00:40:50;;;;;;;2.63;1.98;;;;;;;;;;6177630;23;20100;-58
2023/04/10 00:43:24;;;;;;;3.20;1.90;;;;;;;;;;6176106;23;20107;-58
2023/04/10 00:45:51;;;;;;;3.45;1.58;;;;;;;;;;6176636;23;20498;-56
2023/04/10 00:48:26;;;;;;;2.08;1.60;;;;;;;;;;6175448;23;20029;-56
2023/04/10 00:50:53;;;;;;;4.45;1.80;;;;;;;;;;6176499;23;20079;-57
2023/04/10 00:53:22;;;;;;;2.00;1.58;;;;;;;;;;6175299;23;20045;-57
2023/04/10 00:55:56;;;;;;;2.22;1.67;;;;;;;;;;6151069;23;20021;-57
2023/04/10 00:58:25;;;;;;;3.92;1.33;;;;;;;;;;6175907;23;20076;-52
2023/04/10 01:00:59;;;;;;;2.90;1.95;;;;;;;;;;6152419;23;20044;-60
2023/04/10 01:03:26;;;;;;;1.98;1.60;;;;;;;;;;6176685;23;20025;-57
2023/04/10 01:05:54;;;;;;;;;;;;;;;;;;6176292;23;20358;-57
2023/04/10 01:08:46;;;;;;;2.70;1.40;;;;;;;;;;6176005;23;20302;-57
2023/04/10 01:11:20;;;;;;;2.53;1.80;;;;;;;;;;6175294;23;20458;-57
2023/04/10 01:13:58;;;;;;;3.28;1.80;;;;;;;;;;6175297;23;20454;-57
2023/04/10 01:16:29;;;;;;;2.00;1.63;;;;;;;;;;6177456;23;20104;-57
2023/04/10 01:19:03;;;;;;;;;;;;;;;;;;6177161;23;20021;-57
2023/04/10 01:21:31;;;;;;;4.15;1.65;;;;;;;;;;6174284;23;19962;-57
2023/04/10 01:24:27;;;;;;;6.85;1.58;;;;;;;;;;6176324;23;20021;-58
2023/04/10 01:26:54;;;;;;;;;;;;;;;;;;6176665;23;20433;-60
2023/04/10 01:29:29;;;;;;;2.65;1.55;;;;;;;;;;6176909;23;20413;-54
2023/04/10 01:31:59;;;;;;;2.42;1.67;;;;;;;;;;6176704;23;20096;-60
2023/04/10 01:34:34;;;;;;;2.25;1.60;;;;;;;;;;6176827;23;20100;-60
2023/04/10 01:37:03;;;;;;;1.77;1.48;;;;;;;;;;6153003;23;20032;-60
2023/04/10 01:39:39;;;;;;;2.55;1.67;;;;;;;;;;6178343;23;20077;-61
2023/04/10 01:42:07;;;;;;;4.47;1.73;;;;;;;;;;6176056;23;20025;-60
2023/04/10 01:44:47;;;;;;;2.47;1.50;;;;;;;;;;6177030;23;20573;-60
2023/04/10 01:47:15;;;;;;;1.83;1.50;;;;;;;;;;6176242;23;20060;-59
2023/04/10 01:49:50;;;;;;;3.28;1.80;;;;;;;;;;6177678;23;20091;-60
2023/04/10 01:52:24;;;;;;;4.50;1.88;;;;;;;;;;6179301;23;20028;-60
2023/04/10 01:54:53;;;;;;;2.78;1.52;;;;;;;;;;6176306;23;20521;-52
2023/04/10 01:57:30;;;;;;;3.95;1.88;;;;;;;;;;6177345;23;20028;-59
2023/04/10 01:59:58;;;;;;;2.75;1.70;;;;;;;;;;6177443;23;20420;-60
2023/04/10 02:02:31;;;;;;;2.95;1.90;;;;;;;;;;6176649;23;20037;-60
2023/04/10 02:04:59;;;;;;;3.28;1.67;;;;;;;;;;6175470;23;20104;-60
2023/04/10 02:07:27;;;;;;;;;;;;;;;;;;6179185;23;20350;-60
2023/04/10 02:10:01;;;;;;;2.63;1.83;;;;;;;;;;6177414;23;19983;-60
2023/04/10 02:12:36;;;;;;;2.38;1.98;;;;;;;;;;6175247;23;20064;-60
2023/04/10 02:15:11;;;;;;;3.65;2.28;;;;;;;;;;6176794;23;20024;-60
2023/04/10 02:17:39;;;;;;;2.83;1.80;;;;;;;;;;6176776;23;20033;-61
2023/04/10 02:20:08;;;;;;;2.00;1.70;;;;;;;;;;6175998;23;20100;-61
2023/04/10 02:22:48;;;;;;;3.03;2.13;;;;;;;;;;6178015;23;20462;-60
2023/04/10 02:25:15;;;;;;;4.20;2.35;;;;;;;;;;6176237;23;20023;-59
2023/04/10 02:27:49;;;;;;;2.88;1.70;;;;;;;;;;6176939;23;20548;-49
2023/04/10 02:30:16;;;;;;;2.80;1.83;;;;;;;;;;6177929;23;20061;-51
2023/04/10 02:32:43;;;;;;;3.20;1.80;;;;;;;;;;6177949;23;20025;-51
2023/04/10 02:35:17;;;;;;;3.22;2.05;;;;;;;;;;6177352;23;20025;-48
2023/04/10 02:37:46;;;;;;;2.42;1.90;;;;;;;;;;6178052;23;20025;-54
2023/04/10 02:40:19;;;;;;;3.42;2.22;;;;;;;;;;6177151;23;20427;-52
2023/04/10 02:42:47;;;;;;;2.80;2.08;;;;;;;;;;6177256;23;20467;-52
2023/04/10 02:45:14;;;;;;;2.38;1.88;;;;;;;;;;6176060;23;20036;-52
2023/04/10 02:47:47;;;;;;;3.47;1.95;;;;;;;;;;6177474;23;20021;-53
2023/04/10 02:50:16;;;;;;;2.10;1.90;;;;;;;;;;6175970;23;20020;-54
2023/04/10 02:52:50;;;;;;;5.60;2.58;;;;;;;;;;6176926;23;20036;-53
2023/04/10 02:55:17;;;;;;;4.05;2.10;;;;;;;;;;6177837;23;20025;-60
2023/04/10 02:57:44;;;;;;;3.70;1.80;;;;;;;;;;6176989;23;20025;-61
2023/04/10 03:00:18;;;;;;;5.15;2.30;;;;;;;;;;6177447;23;20061;-60
2023/04/10 03:02:46;;;;;;;;;;;;;;;;;;6175223;23;20516;-60
2023/04/10 03:05:20;;;;;;;3.78;2.15;;;;;;;;;;6174389;23;19920;-60
2023/04/10 03:07:47;;;;;;;3.50;2.25;;;;;;;;;;6151887;23;20092;-60
2023/04/10 03:10:14;;;;;;;4.85;2.17;;;;;;;;;;6177992;23;20103;-60
2023/04/10 03:12:49;;;;;;;7.82;2.05;;;;;;;;;;6175794;23;20021;-59
2023/04/10 03:15:22;;;;;;;3.85;2.22;;;;;;;;;;6175699;23;20079;-60
2023/04/10 03:17:55;;;;;;;3.45;2.38;;;;;;;;;;6177572;23;20021;-59
2023/04/10 03:20:23;;;;;;;2.83;2.13;;;;;;;;;;6176761;23;20029;-54
2023/04/10 03:22:50;;;;;;;4.82;2.22;;;;;;;;;;6177035;23;20080;-60
2023/04/10 03:25:31;;;;;;;6.53;2.55;;;;;;;;;;6177330;23;20092;-58
2023/04/10 03:27:58;;;;;;;3.22;2.40;;;;;;;;;;6176701;23;20075;-56
2023/04/10 03:30:34;;;;;;;4.60;2.17;;;;;;;;;;6178095;23;20075;-58
2023/04/10 03:33:02;;;;;;;6.38;2.50;;;;;;;;;;6176423;23;20052;-58
2023/04/10 03:35:29;;;;;;;5.03;2.20;;;;;;;;;;6176272;23;20542;-57
2023/04/10 03:38:02;;;;;;;6.15;2.60;;;;;;;;;;6174894;23;20485;-57
2023/04/10 03:40:30;;;;;;;5.28;2.55;;;;;;;;;;6177052;23;20088;-58
2023/04/10 03:42:57;;;;;;;6.95;3.08;;;;;;;;;;6176371;23;20524;-58
2023/04/10 03:45:30;;;;;;;4.43;2.67;;;;;;;;;;6176172;23;20021;-55
2023/04/10 03:47:58;;;;;;;7.97;2.78;;;;;;;;;;6175801;23;20464;-56
2023/04/10 03:50:32;;;;;;;7.40;2.75;;;;;;;;;;6175941;23;20033;-57
2023/04/10 03:53:00;;;;;;;4.50;2.75;;;;;;;;;;6176961;23;20096;-53
2023/04/10 03:55:27;;;;;;;3.67;2.25;;;;;;;;;;6177057;23;20347;-54
2023/04/10 03:58:01;;;;;;;4.35;2.78;;;;;;;;;;6176417;23;20484;-52
2023/04/10 04:00:28;;;;;;;3.67;2.50;;;;;;;;;;6178077;23;20091;-54
2023/04/10 04:03:03;;;;;;;5.25;2.83;;;;;;;;;;6175895;23;20029;-49
2023/04/10 04:05:31;;;;;;;4.20;2.53;;;;;;;;;;6176444;23;20032;-53
2023/04/10 04:07:58;;;;;;;4.60;2.50;;;;;;;;;;6176008;23;20029;-60
2023/04/10 04:10:32;;;;;;;7.45;2.65;;;;;;;;;;6177194;23;20025;-59
2023/04/10 04:13:00;;;;;;;5.35;2.50;;;;;;;;;;6175633;23;20104;-60
2023/04/10 04:15:27;;;;;;;3.92;2.75;;;;;;;;;;6176029;23;20096;-60
2023/04/10 04:18:00;;;;;;;7.60;3.20;;;;;;;;;;6175385;23;20025;-61
2023/04/10 04:20:28;;;;;;;5.40;3.22;;;;;;;;;;6176004;23;20299;-61
2023/04/10 04:23:14;;;;;;;4.78;3.20;;;;;;;;;;6176283;23;20056;-60
2023/04/10 04:25:51;;;;;;;5.95;2.83;;;;;;;;;;6174577;23;20100;-60
2023/04/10 04:28:25;;;;;;;9.50;3.13;;;;;;;;;;6175368;23;20127;-60
2023/04/10 04:30:55;;;;;;;7.60;3.33;;;;;;;;;;6176941;23;20032;-59
2023/04/10 04:33:27;;;;;;;3.45;2.35;;;;;;;;;;6175907;23;20343;-60
2023/04/10 04:36:01;;;;;;;4.28;2.72;;;;;;;;;;6176731;23;20056;-60
2023/04/10 04:38:29;;;;;;;5.57;3.13;;;;;;;;;;6175771;23;20048;-60
2023/04/10 04:41:02;;;;;;;6.00;3.92;;;;;;;;;;6176096;23;20768;-60
2023/04/10 04:43:30;;;;;;;5.93;3.20;;;;;;;;;;6174646;23;20539;-60
2023/04/10 04:45:58;;;;;;;7.00;3.50;;;;;;;;;;6175847;23;20418;-49
2023/04/10 04:48:33;;;;;;;5.70;3.53;;;;;;;;;;6176475;23;20430;-59
2023/04/10 04:51:00;;;;;;;;;;;;;;;;;;6177327;23;20017;-51
2023/04/10 04:53:33;;;;;;;5.35;3.58;;;;;;;;;;6175338;23;19946;-52
2023/04/10 04:56:01;;;;;;;8.05;3.30;;;;;;;;;;6177100;23;20023;-53
2023/04/10 04:58:28;;;;;;;4.53;2.95;;;;;;;;;;6175687;23;20068;-50
2023/04/10 05:01:02;;;;;;;6.63;3.85;;;;;;;;;;6174610;23;20099;-48
2023/04/10 05:03:30;;;;;;;4.93;3.10;;;;;;;;;;6175260;23;20025;-52
2023/04/10 05:06:05;;;;;;;4.95;2.95;;;;;;;;;;6175120;23;20076;-60
2023/04/10 05:08:32;;;;;;;12.13;3.40;;;;;;;;;;6176657;23;20096;-60
2023/04/10 05:10:59;;;;;;;5.68;3.38;;;;;;;;;;6177370;23;20029;-60
2023/04/10 05:13:34;;;;;;;5.80;3.30;;;;;;;;;;6177888;23;20029;-59
2023/04/10 05:16:01;;;;;;;;;;;;;;;;;;6178776;23;20024;-59
2023/04/10 05:18:35;;;;;;;7.25;3.17;;;;;;;;;;6178007;23;19922;-59
2023/04/10 05:21:02;;;;;;;4.63;3.00;;;;;;;;;;6152692;23;20021;-60
2023/04/10 05:23:30;;;;;;;11.52;3.30;;;;;;;;;;6176683;23;20491;-60
2023/04/10 05:26:04;;;;;;;4.93;3.10;;;;;;;;;;6178289;23;20100;-60
2023/04/10 05:28:32;;;;;;;6.28;3.00;;;;;;;;;;6178254;23;20120;-59
2023/04/10 05:30:59;;;;;;;5.75;3.42;;;;;;;;;;6177961;23;20021;-59
2023/04/10 05:33:32;;;;;;;7.43;3.58;;;;;;;;;;6178022;23;20123;-53
2023/04/10 05:35:59;;;;;;;7.35;3.55;;;;;;;;;;6178644;23;20470;-47
2023/04/10 05:38:34;;;;;;;5.45;3.30;;;;;;;;;;6176503;23;20104;-50
2023/04/10 05:41:01;;;;;;;6.10;3.40;;;;;;;;;;6177534;23;20567;-47
2023/04/10 05:43:28;;;;;;;5.38;2.95;;;;;;;;;;6178050;23;20103;-59
2023/04/10 05:46:02;;;;;;;8.60;3.30;;;;;;;;;;6178205;23;20032;-57
2023/04/10 05:48:30;;;;;;;6.97;2.83;;;;;;;;;;6177869;23;20063;-57
2023/04/10 05:51:03;;;;;;;6.15;3.08;;;;;;;;;;6177489;23;20021;-57
2023/04/10 05:53:31;;;;;;;7.40;3.40;;;;;;;;;;6176086;23;20401;-57
2023/04/10 05:55:58;;;;;;;;;;;;;;;;;;6179326;23;20024;-57
2023/04/10 05:58:32;;;;;;;6.78;2.80;;;;;;;;;;6178567;23;19998;-56
2023/04/10 06:00:59;;;;;;;4.22;2.95;;;;;;;;;;6175679;23;20025;-52
2023/04/10 06:03:33;;;;;;;7.00;2.80;;;;;;;;;;6172212;23;20063;-53
2023/04/10 06:06:04;;;;;;;6.10;3.47;;;;;;;;;;6173808;23;20410;-50
2023/04/10 06:08:31;;;;;;;5.63;3.10;;;;;;;;;;6175821;23;20578;-53
2023/04/10 06:11:05;;;;;;;6.13;3.20;;;;;;;;;;6175658;23;20489;-60
2023/04/10 06:13:32;;;;;;;5.18;2.72;;;;;;;;;;6175282;23;20025;-59
2023/04/10 06:16:07;;;;;;;4.95;3.58;;;;;;;;;;6175868;23;20021;-51
2023/04/10 06:18:34;;;;;;;7.05;2.90;;;;;;;;;;6174968;23;20036;-52
2023/04/10 06:21:01;;;;;;;4.28;3.13;;;;;;;;;;6177537;23;20021;-48
2023/04/10 06:23:48;;;;;;;5.43;3.20;;;;;;;;;;6174269;23;20060;-52
2023/04/10 06:26:24;;;;;;;5.20;3.10;;;;;;;;;;6177883;23;20363;-52
2023/04/10 06:28:58;;;;;;;5.80;3.30;;;;;;;;;;6177752;23;20017;-51
2023/04/10 06:31:26;;;;;;;5.38;3.28;;;;;;;;;;6179253;23;20350;-60
2023/04/10 06:33:53;;;;;;;6.70;3.67;;;;;;;;;;6177706;23;20021;-60
2023/04/10 06:36:28;;;;;;;6.47;3.63;;;;;;;;;;6177276;23;20056;-60
2023/04/10 06:38:55;;;;;;;4.63;2.97;;;;;;;;;;6175610;23;20455;-60
2023/04/10 06:41:28;;;;;;;5.05;3.45;;;;;;;;;;6178478;23;20029;-49
2023/04/10 06:43:55;;;;;;;5.95;3.38;;;;;;;;;;6176906;23;20100;-57
2023/04/10 06:46:22;;;;;;;5.47;3.72;;;;;;;;;;6173065;23;20108;-56
2023/04/10 06:48:56;;;;;;;7.75;3.25;;;;;;;;;;6176124;23;20017;-54
2023/04/10 06:51:24;;;;;;;4.95;3.47;;;;;;;;;;6177227;23;20037;-53
2023/04/10 06:53:59;;;;;;;5.00;3.13;;;;;;;;;;6174680;23;20021;-51
2023/04/10 06:56:26;;;;;;;;;;;;;;;;;;6151045;23;20124;-57
2023/04/10 06:58:53;;;;;;;7.13;3.55;;;;;;;;;;6175036;23;20007;-52
2023/04/10 07:01:27;;;;;;;4.80;3.28;;;;;;;;;;6175129;23;20552;-55
2023/04/10 07:03:55;;;;;;;4.45;2.80;;;;;;;;;;6175543;23;20273;-52
2023/04/10 07:06:30;;;;;;;6.70;3.10;;;;;;;;;;6175651;23;20025;-54
2023/04/10 07:08:57;;;;;;;8.23;3.60;;;;;;;;;;6175823;23;20497;-57
2023/04/10 07:11:24;;;;;;;5.88;3.35;;;;;;;;;;6177658;23;20031;-57
2023/04/10 07:13:58;;;;;;;4.97;2.92;;;;;;;;;;6177763;23;20529;-57
2023/04/10 07:16:26;;;;;;;7.82;3.00;;;;;;;;;;6176938;23;20108;-58
2023/04/10 07:19:00;;;;;;;4.35;2.80;;;;;;;;;;6176629;23;20021;-59
2023/04/10 07:21:28;;;;;;;9.40;3.17;;;;;;;;;;6177435;23;20751;-58
2023/04/10 07:23:55;;;;;;;5.15;2.40;;;;;;;;;;6175757;23;20422;-57
2023/04/10 07:26:28;;;;;;;6.70;2.60;;;;;;;;;;6177350;23;20060;-60
2023/04/10 07:28:55;;;;;;;6.47;2.85;;;;;;;;;;6177082;23;20052;-61
2023/04/10 07:31:29;;;;;;;6.13;2.20;;;;;;;;;;6177016;23;20092;-61
2023/04/10 07:33:56;;;;;;;4.35;2.40;;;;;;;;;;6177256;23;20025;-61
2023/04/10 07:36:25;;;;;;;6.50;2.30;;;;;;;;;;6177257;23;20415;-54
2023/04/10 07:38:59;;;;;;;3.17;2.28;;;;;;;;;;6175936;23;20035;-52
2023/04/10 07:41:27;;;;;;;6.78;2.10;;;;;;;;;;6178447;23;20363;-58
2023/04/10 07:44:00;;;;;;;5.07;2.30;;;;;;;;;;6177119;23;20104;-58
2023/04/10 07:46:27;;;;;;;5.47;2.45;;;;;;;;;;6174501;23;20466;-58
2023/04/10 07:49:01;;;;;;;3.47;2.17;;;;;;;;;;6176088;23;20031;-58
2023/04/10 07:51:29;;;;;;;4.00;1.75;;;;;;;;;;6177010;23;20021;-58
2023/04/10 07:53:56;;;;;;;5.07;2.10;;;;;;;;;;6176876;23;20049;-59
2023/04/10 07:56:30;;;;;;;4.10;1.88;;;;;;;;;;6178684;23;20025;-58
2023/04/10 07:59:01;;;;;;;3.05;1.83;;;;;;;;;;6176593;23;20029;-57
2023/04/10 08:01:35;;;;;;;2.35;1.70;;;;;;;;;;6175945;23;20059;-58
2023/04/10 08:04:03;;;;;;;6.03;2.17;;;;;;;;;;6177406;23;20021;-57
2023/04/10 08:06:37;;;;;;;4.05;2.45;;;;;;;;;;6176274;23;20029;-60
2023/04/10 08:09:04;;;;;;;2.45;1.67;;;;;;;;;;6177074;23;20474;-55
2023/04/10 08:11:32;;;;;;;3.53;2.00;;;;;;;;;;6176901;23;20036;-55
2023/04/10 08:14:06;;;;;;;2.60;1.88;;;;;;;;;;6176860;23;20028;-55
2023/04/10 08:16:34;;;;;;;4.03;2.10;;;;;;;;;;6177207;23;20049;-54
2023/04/10 08:19:08;;;;;;;1.80;1.60;;;;;;;;;;6175838;23;20024;-56
2023/04/10 08:21:36;;;;;;;2.50;1.60;;;;;;;;;;6175980;23;20049;-54
2023/04/10 08:24:23;;;;;;;2.53;1.67;;;;;;;;;;6177343;23;20075;-54
2023/04/10 08:26:57;;;;;;;3.03;1.80;;;;;;;;;;6177439;23;20047;-53
2023/04/10 08:29:31;;;;;;;3.15;1.45;;;;;;;;;;6176639;23;20021;-54
2023/04/10 08:31:59;;;;;;;2.97;1.63;;;;;;;;;;6176435;23;20470;-53
2023/04/10 08:34:27;;;;;;;2.30;1.20;;;;;;;;;;6177021;23;20028;-47
2023/04/10 08:37:00;;;;;;;2.05;1.10;;;;;;;;;;6176253;23;20063;-60
2023/04/10 08:39:28;;;;;;;3.08;1.90;;;;;;;;;;6176064;23;20462;-60
2023/04/10 08:42:02;;;;;;;2.28;1.40;;;;;;;;;;6178654;23;20021;-60
2023/04/10 08:44:29;;;;;;;1.65;1.02;;;;;;;;;;6178637;23;20021;-60
2023/04/10 08:46:58;;;;;;;1.85;1.27;;;;;;;;;;6178044;23;20391;-60
2023/04/10 08:49:38;;;;;;;1.88;1.70;;;;;;;;;;6178722;23;20021;-60
2023/04/10 08:52:08;;;;;;;2.83;1.73;;;;;;;;;;6178433;23;20574;-60
2023/04/10 08:54:45;;;;;;;2.45;1.30;;;;;;;;;;6178898;23;20226;-61
2023/04/10 08:57:18;;;;;;;6.32;1.70;;;;;;;;;;6177055;23;20629;-60
2023/04/10 08:59:52;;;;;;;2.55;1.40;;;;;;;;;;6178036;23;20336;-60
2023/04/10 09:02:20;;;;;;;2.60;1.63;;;;;;;;;;6178952;23;20025;-61
2023/04/10 09:04:55;;;;;;;3.00;1.50;;;;;;;;;;6153119;23;20104;-57
2023/04/10 09:07:22;;;;;;;2.22;1.70;;;;;;;;;;6179332;23;20048;-62
2023/04/10 09:09:56;;;;;;;4.35;1.60;;;;;;;;;;6176769;23;20096;-61
2023/04/10 09:12:23;;;;;;;2.75;1.58;;;;;;;;;;6178604;23;20135;-62
2023/04/10 09:14:52;;;;;;;1.73;1.45;;;;;;;;;;6179428;23;20052;-61
2023/04/10 09:17:25;;;;;;;2.38;1.30;;;;;;;;;;6178882;23;20029;-60
2023/04/10 09:19:53;;;;;;;2.35;1.40;;;;;;;;;;6178158;23;20276;-60
2023/04/10 09:22:31;;;;;;;2.30;1.40;;;;;;;;;;6178869;23;20096;-61
2023/04/10 09:25:06;;;;;;;1.33;1.00;;;;;;;;;;6177983;23;20032;-62
2023/04/10 09:27:41;;;;;;;3.80;1.33;;;;;;;;;;6179199;23;20025;-62
2023/04/10 09:30:08;;;;;;;2.42;1.27;;;;;;;;;;6176735;23;20466;-62
2023/04/10 09:32:39;;;;;;;1.73;1.08;;;;;;;;;;6179590;23;20051;-60
2023/04/10 09:35:13;;;;;;;;;;;;;;;;;;6179609;23;20053;-60
2023/04/10 09:37:41;;;;;;;2.28;1.35;;;;;;;;;;6177045;23;20326;-60
2023/04/10 09:40:23;;;;;;;1.67;0.90;;;;;;;;;;6178092;23;20117;-60
2023/04/10 09:42:50;;;;;;;2.92;1.50;;;;;;;;;;6147932;23;20025;-59
2023/04/10 09:45:25;;;;;;;1.52;1.00;;;;;;;;;;6175961;23;20029;-59
2023/04/10 09:48:02;;;;;;;3.00;1.50;;;;;;;;;;6151303;23;20672;-59
2023/04/10 09:50:36;;;;;;;2.50;1.27;;;;;;;;;;6177765;23;20025;-59
2023/04/10 09:53:14;;;;;;;2.38;1.42;;;;;;;;;;6151437;23;20025;-59
2023/04/10 09:55:48;;;;;;;3.05;1.48;;;;;;;;;;6179078;23;20406;-59
2023/04/10 09:58:17;;;;;;;2.05;1.40;;;;;;;;;;6176733;23;20032;-59
2023/04/10 10:00:45;;;;;;;2.88;1.58;;;;;;;;;;6177919;23;20060;-60
2023/04/10 10:03:20;;;;;;;2.10;1.50;;;;;;;;;;6178391;23;20324;-57
2023/04/10 10:05:48;;;;;;;2.35;1.60;;;;;;;;;;6178583;23;20475;-56
2023/04/10 10:08:23;;;;;;;2.97;1.50;;;;;;;;;;6176578;23;20024;-58
2023/04/10 10:10:52;;;;;;;2.50;1.55;;;;;;;;;;6177384;23;20474;-57
2023/04/10 10:13:32;;;;;;;3.85;1.55;;;;;;;;;;6177642;23;20078;-56
2023/04/10 10:16:27;;;;;;;3.15;1.92;;;;;;;;;;6177896;23;20096;-57
2023/04/10 10:18:57;;;;;;;3.10;1.75;;;;;;;;;;6177807;23;20056;-55
2023/04/10 10:21:33;;;;;;;3.63;1.80;;;;;;;;;;6176263;23;20021;-54
2023/04/10 10:24:07;;;;;;;4.10;1.70;;;;;;;;;;6177813;23;20076;-56
2023/04/10 10:26:42;;;;;;;2.58;1.88;;;;;;;;;;6151754;23;20021;-56
2023/04/10 10:29:10;;;;;;;3.15;1.95;;;;;;;;;;6175942;23;20104;-61
2023/04/10 10:31:44;;;;;;;3.60;2.08;;;;;;;;;;6176580;23;20362;-61
2023/04/10 10:34:11;;;;;;;;;;;;;;;;;;6177881;23;20085;-61
2023/04/10 10:36:39;;;;;;;4.55;2.30;;;;;;;;;;6176236;23;19955;-61
2023/04/10 10:39:18;;;;;;;4.95;2.15;;;;;;;;;;6176519;23;20032;-61
2023/04/10 10:41:53;;;;;;;2.97;1.88;;;;;;;;;;6176175;23;20804;-61
2023/04/10 10:44:34;;;;;;;3.50;2.17;;;;;;;;;;6176759;23;20479;-61
2023/04/10 10:47:07;;;;;;;3.83;1.90;;;;;;;;;;6177473;23;20028;-60
2023/04/10 10:49:52;;;;;;;2.95;1.92;;;;;;;;;;6178176;23;20024;-60
2023/04/10 10:52:38;;;;;;;3.25;1.73;;;;;;;;;;6175477;23;20433;-60
2023/04/10 10:55:23;;;;;;;3.22;2.00;;;;;;;;;;6175276;23;20056;-60
2023/04/10 10:57:52;;;;;;;3.90;1.88;;;;;;;;;;6175387;23;20618;-56
2023/04/10 11:00:26;;;;;;;4.30;2.50;;;;;;;;;;6175104;23;20025;-52
2023/04/10 11:03:11;;;;;;;1.77;1.45;;;;;;;;;;6175609;23;20017;-51
2023/04/10 11:05:56;;;;;;;3.30;1.85;;;;;;;;;;6177604;23;20083;-53
2023/04/10 11:08:32;;;;;;;5.03;1.92;;;;;;;;;;6177373;23;20035;-53
2023/04/10 11:11:06;;;;;;;2.40;1.40;;;;;;;;;;6174589;23;20465;-51
2023/04/10 11:13:34;;;;;;;1.77;1.35;;;;;;;;;;6177370;23;20025;-52
2023/04/10 11:16:02;;;;;;;2.08;1.45;;;;;;;;;;6176983;23;20032;-60
2023/04/10 11:18:46;;;;;;;1.70;1.27;;;;;;;;;;6176796;23;20467;-60
2023/04/10 11:21:33;;;;;;;6.88;1.27;;;;;;;;;;6176423;23;20525;-61
2023/04/10 11:24:13;;;;;;;2.72;1.50;;;;;;;;;;6177366;23;20332;-55
2023/04/10 11:26:55;;;;;;;4.45;1.70;;;;;;;;;;6175424;23;20025;-51
2023/04/10 11:29:28;;;;;;;2.72;1.40;;;;;;;;;;6174457;23;20028;-55
2023/04/10 11:32:03;;;;;;;3.35;1.38;;;;;;;;;;6174616;23;20023;-56
2023/04/10 11:34:31;;;;;;;3.65;1.15;;;;;;;;;;6173171;23;20379;-58
2023/04/10 11:37:05;;;;;;;1.70;1.40;;;;;;;;;;6177201;23;20031;-57
2023/04/10 11:39:33;;;;;;;3.90;1.15;;;;;;;;;;6177138;23;20060;-54
2023/04/10 11:42:00;;;;;;;5.60;1.38;;;;;;;;;;6175166;23;20064;-58
2023/04/10 11:44:35;;;;;;;5.03;1.23;;;;;;;;;;6176219;23;20055;-60
2023/04/10 11:47:02;;;;;;;;;;;;;;;;;;6175642;23;20029;-60
2023/04/10 11:49:33;;;;;;;3.65;1.15;;;;;;;;;;6174684;23;19916;-60
2023/04/10 11:52:06;;;;;;;2.03;1.00;;;;;;;;;;6175058;23;20035;-60
2023/04/10 11:54:48;;;;;;;1.88;1.20;;;;;;;;;;6177297;23;20056;-58
2023/04/10 11:57:16;;;;;;;1.75;1.02;;;;;;;;;;6177145;23;20025;-52
2023/04/10 11:59:50;;;;;;;1.83;1.20;;;;;;;;;;6175872;23;20432;-52
2023/04/10 12:02:17;;;;;;;1.30;0.90;;;;;;;;;;6174530;23;20100;-53
2023/04/10 12:04:45;;;;;;;2.47;1.20;;;;;;;;;;6176019;23;20276;-54
2023/04/10 12:07:18;;;;;;;1.02;0.80;;;;;;;;;;6174650;23;20017;-54
2023/04/10 12:09:46;;;;;;;1.92;1.23;;;;;;;;;;6174887;23;20689;-52
2023/04/10 12:12:20;;;;;;;1.25;0.98;;;;;;;;;;6177344;23;20510;-60
2023/04/10 12:14:47;;;;;;;0.80;0.80;;;;;;;;;;6172871;23;20136;-60
2023/04/10 12:17:16;;;;;;;2.33;1.30;;;;;;;;;;6174995;23;20091;-60
2023/04/10 12:19:50;;;;;;;2.03;1.33;;;;;;;;;;6175660;23;20067;-62
2023/04/10 12:22:19;;;;;;;1.30;0.85;;;;;;;;;;6175903;23;20064;-60
2023/04/10 12:25:00;;;;;;;0.75;0.75;;;;;;;;;;6164034;23;20029;-55
2023/04/10 12:27:27;;;;;;;2.03;1.27;;;;;;;;;;6174127;23;20060;-56
2023/04/10 12:30:08;;;;;;;3.97;0.82;;;;;;;;;;6177585;23;20107;-55
2023/04/10 12:32:35;;;;;;;0.98;0.80;;;;;;;;;;6174746;23;20028;-56
2023/04/10 12:35:09;;;;;;;1.08;0.90;;;;;;;;;;6174035;23;20029;-57
2023/04/10 12:37:55;;;;;;;2.78;1.00;;;;;;;;;;6173635;23;20021;-58
2023/04/10 12:40:29;;;;;;;3.20;1.10;;;;;;;;;;6174819;23;20824;-61
2023/04/10 12:42:56;;;;;;;2.25;1.05;;;;;;;;;;6176727;23;20103;-61
2023/04/10 12:45:43;;;;;;;2.60;1.20;;;;;;;;;;6175050;23;20032;-61
2023/04/10 12:48:23;;;;;;;3.25;0.95;;;;;;;;;;6174818;23;20025;-61
2023/04/10 12:50:50;;;;;;;1.10;1.00;;;;;;;;;;6176178;23;20048;-56
2023/04/10 12:53:24;;;;;;;1.38;1.05;;;;;;;;;;6176107;23;20025;-55
2023/04/10 12:56:05;;;;;;;1.17;0.90;;;;;;;;;;6176335;23;20028;-51
2023/04/10 12:58:41;;;;;;;1.50;1.20;;;;;;;;;;6175260;23;20033;-54
2023/04/10 13:01:08;;;;;;;1.50;1.02;;;;;;;;;;6176189;23;20071;-53
2023/04/10 13:03:42;;;;;;;1.00;0.80;;;;;;;;;;6174586;23;20027;-51
2023/04/10 13:06:10;;;;;;;2.13;1.13;;;;;;;;;;6175604;23;20075;-49
2023/04/10 13:08:37;;;;;;;2.63;0.93;;;;;;;;;;6176857;23;20136;-61
2023/04/10 13:11:11;;;;;;;1.20;1.00;;;;;;;;;;6174910;23;20105;-61
2023/04/10 13:13:38;;;;;;;0.90;0.90;;;;;;;;;;6174353;23;20105;-61
2023/04/10 13:16:12;;;;;;;1.40;1.20;;;;;;;;;;6176646;23;20478;-61
2023/04/10 13:18:40;;;;;;;2.20;1.30;;;;;;;;;;6176173;23;20056;-57
2023/04/10 13:21:07;;;;;;;1.75;1.30;;;;;;;;;;6173624;23;20108;-59
2023/04/10 13:24:01;;;;;;;1.65;1.35;;;;;;;;;;6176347;23;20132;-57
2023/04/10 13:26:35;;;;;;;1.58;1.40;;;;;;;;;;6175203;23;20025;-59
2023/04/10 13:29:09;;;;;;;1.65;1.20;;;;;;;;;;6175656;23;20020;-59
2023/04/10 13:31:36;;;;;;;8.63;1.33;;;;;;;;;;6176811;23;20021;-59
2023/04/10 13:34:04;;;;;;;3.33;1.30;;;;;;;;;;6177135;23;20028;-59
2023/04/10 13:36:37;;;;;;;3.67;1.42;;;;;;;;;;6178740;23;20021;-51
2023/04/10 13:39:05;;;;;;;;;;;;;;;;;;6177550;23;20079;-57
2023/04/10 13:41:39;;;;;;;3.72;1.42;;;;;;;;;;6175859;23;19920;-51
2023/04/10 13:44:06;;;;;;;1.55;1.30;;;;;;;;;;6177223;23;20021;-55
2023/04/10 13:46:33;;;;;;;2.22;1.27;;;;;;;;;;6178390;23;20064;-51
2023/04/10 13:49:06;;;;;;;2.05;1.50;;;;;;;;;;6175814;23;20498;-57
2023/04/10 13:51:34;;;;;;;1.83;1.23;;;;;;;;;;6176104;23;20028;-59
2023/04/10 13:54:09;;;;;;;1.92;1.42;;;;;;;;;;6177271;23;20025;-59
2023/04/10 13:56:45;;;;;;;3.85;1.48;;;;;;;;;;6174735;23;20389;-59
2023/04/10 13:59:19;;;;;;;4.22;1.67;;;;;;;;;;6176530;23;20100;-59
2023/04/10 14:01:46;;;;;;;2.58;1.73;;;;;;;;;;6177244;23;20192;-59
2023/04/10 14:04:20;;;;;;;2.08;1.60;;;;;;;;;;6176792;23;20017;-59
2023/04/10 14:07:15;;;;;;;4.53;1.60;;;;;;;;;;6176619;23;20056;-60
2023/04/10 14:09:42;;;;;;;2.55;1.80;;;;;;;;;;6176343;23;20023;-60
2023/04/10 14:12:18;;;;;;;2.22;1.48;;;;;;;;;;6174795;23;20029;-60
2023/04/10 14:14:45;;;;;;;2.63;1.70;;;;;;;;;;6172578;23;20084;-61
2023/04/10 14:17:12;;;;;;;3.42;1.60;;;;;;;;;;6173922;23;20085;-60
2023/04/10 14:19:47;;;;;;;2.10;1.65;;;;;;;;;;6175040;23;20108;-54
2023/04/10 14:22:14;;;;;;;3.55;1.45;;;;;;;;;;6171729;23;20075;-51
2023/04/10 14:24:42;;;;;;;4.57;3.28;;;;;;;;;;6173931;23;20052;-55
2023/04/10 14:27:26;;;;;;;3.30;1.73;;;;;;;;;;6175099;23;20024;-55
2023/04/10 14:29:54;;;;;;;5.28;1.83;;;;;;;;;;6174030;23;20079;-54
2023/04/10 14:32:29;;;;;;;3.35;1.95;;;;;;;;;;6174223;23;20067;-57
2023/04/10 14:34:57;;;;;;;3.97;1.80;;;;;;;;;;6175738;23;20260;-61
2023/04/10 14:37:24;;;;;;;3.10;2.03;;;;;;;;;;6173154;23;20029;-61
2023/04/10 14:39:57;;;;;;;5.20;1.90;;;;;;;;;;6174821;23;20021;-61
2023/04/10 14:42:25;;;;;;;2.10;1.58;;;;;;;;;;6175677;23;20024;-61
2023/04/10 14:44:53;;;;;;;2.47;1.70;;;;;;;;;;6174421;23;20534;-60
2023/04/10 14:47:26;;;;;;;4.28;1.75;;;;;;;;;;6173911;23;20473;-54
2023/04/10 14:49:54;;;;;;;4.00;1.58;;;;;;;;;;6174502;23;20025;-56
2023/04/10 14:52:21;;;;;;;2.88;1.90;;;;;;;;;;6169965;23;20129;-55
2023/04/10 14:54:55;;;;;;;3.70;2.33;;;;;;;;;;6173361;23;20024;-54
2023/04/10 14:57:22;;;;;;;3.00;1.90;;;;;;;;;;6174430;23;20123;-55
2023/04/10 14:59:56;;;;;;;5.28;2.35;;;;;;;;;;6172695;23;20109;-52
2023/04/10 15:02:23;;;;;;;5.18;2.40;;;;;;;;;;6172227;23;20025;-59
2023/04/10 15:04:51;;;;;;;3.22;1.70;;;;;;;;;;6173741;23;20364;-58
2023/04/10 15:07:27;;;;;;;6.07;2.05;;;;;;;;;;6173241;23;20021;-56
2023/04/10 15:09:57;;;;;;;3.85;2.10;;;;;;;;;;6174270;23;20047;-58
2023/04/10 15:12:24;;;;;;;3.47;1.95;;;;;;;;;;6172771;23;20021;-56
2023/04/10 15:14:59;;;;;;;5.32;1.90;;;;;;;;;;6170459;23;20104;-56